Flight Track Log - Related Links

Times and Time Zones

All times are in EDT time to prevent confusion due to time zone crossing. See the FIN666 flight status page for this flight to view local times or setup timezone preferences in your user account.

Time Position Orientation Groundspeed Altitude Reporting Facility
EDT Latitude Longitude Course Direction KTS MPH feet Rate Location/Type
Sun 07:31:00 AM 55.8329 13.1000 49° Northeast  Level Estimated
Sun 07:32:00 AM 55.9042 13.2491 50° Northeast  Level Estimated
Sun 07:33:00 AM 55.9753 13.3988 50° Northeast  Level Estimated
Sun 07:34:00 AM 56.0462 13.5490 50° Northeast  Level Estimated
Sun 07:35:00 AM 56.1189 13.7040 50° Northeast  Level Estimated
Sun 07:36:00 AM 56.1915 13.8596 50° Northeast  Level Estimated
Sun 07:37:00 AM 56.2638 14.0158 50° Northeast  Level Estimated
Sun 07:38:00 AM 56.3360 14.1726 50° Northeast  Level Estimated
Sun 07:39:00 AM 56.4079 14.3299 50° Northeast  Level Estimated
Sun 07:40:00 AM 56.4797 14.4879 51° Northeast  Level Estimated
Sun 07:41:00 AM 56.5512 14.6465 51° Northeast  Level Estimated
Sun 07:42:00 AM 56.6226 14.8056 51° Northeast  Level Estimated
Sun 07:43:00 AM 56.6937 14.9654 51° Northeast  Level Estimated
Sun 07:44:00 AM 56.7646 15.1258 51° Northeast  Level Estimated
Sun 07:45:00 AM 56.8354 15.2867 51° Northeast  Level Estimated
Sun 07:46:00 AM 56.9059 15.4483 51° Northeast  Level Estimated
Sun 07:47:00 AM 56.9762 15.6105 51° Northeast  Level Estimated
Sun 07:48:00 AM 57.0463 15.7733 52° Northeast  Level Estimated
Sun 07:49:00 AM 57.1162 15.9368 52° Northeast  Level Estimated
Sun 07:50:00 AM 57.1859 16.1008 52° Northeast  Level Estimated
Sun 07:51:00 AM 57.2553 16.2654 52° Northeast  Level Estimated
Sun 07:52:00 AM 57.3246 16.4307 52° Northeast  Level Estimated
Sun 07:53:00 AM 57.3936 16.5966 52° Northeast  Level Estimated
Sun 07:54:00 AM 57.4624 16.7632 52° Northeast  Level Estimated
Sun 07:55:00 AM 57.5310 16.9303 53° Northeast  Level Estimated
Sun 07:56:00 AM 57.5994 17.0981 53° Northeast  Level Estimated
Sun 07:57:00 AM 57.6675 17.2665 53° Northeast  Level Estimated
Sun 07:58:00 AM 57.7354 17.4356 53° Northeast  Level Estimated
Sun 07:59:00 AM 57.8031 17.6052 53° Northeast  Level Estimated
Sun 08:00:00 AM 57.8706 17.7756 53° Northeast  Level Estimated
Sun 08:01:00 AM 57.9378 17.9465 53° Northeast  Level Estimated
Sun 08:02:00 AM 58.0048 18.1181 54° Northeast  Level Estimated
Sun 08:03:00 AM 58.0716 18.2904 54° Northeast  Level Estimated
Sun 08:04:00 AM 58.1382 18.4633 54° Northeast  Level Estimated
Sun 08:05:00 AM 58.2045 18.6368 54° Northeast  Level Estimated
Sun 08:06:00 AM 58.2705 18.8110 54° Northeast  Level Estimated
Sun 08:07:00 AM 58.3364 18.9858 54° Northeast  Level Estimated
Sun 08:08:00 AM 58.4020 19.1613 54° Northeast  Level Estimated
Sun 08:09:00 AM 58.4673 19.3374 55° Northeast  Level Estimated
Sun 08:10:00 AM 58.5324 19.5142 55° Northeast  Level Estimated
Sun 08:11:00 AM 58.5973 19.6917 55° Northeast  Level Estimated
Sun 08:12:00 AM 58.6619 19.8698 55° Northeast  Level Estimated
Sun 08:13:00 AM 58.7263 20.0485 55° Northeast  Level Estimated
Sun 08:14:00 AM 58.7904 20.2280 55° Northeast  Level Estimated
Sun 08:15:00 AM 58.8543 20.4080 56° Northeast  Level Estimated
Sun 08:16:00 AM 58.9179 20.5888 56° Northeast  Level Estimated
Sun 08:17:00 AM 58.9813 20.7702 56° Northeast  Level Estimated
Sun 08:18:00 AM 59.0444 20.9523 56° Northeast  Level Estimated
Sun 08:19:00 AM 59.1073 21.1351 56° Northeast  Level Estimated
Sun 08:20:00 AM 59.1699 21.3185 56° Northeast  Level Estimated
Sun 08:21:00 AM 59.2322 21.5026 56° Northeast  Level Estimated
Sun 08:22:00 AM 59.2943 21.6873 57° Northeast  Level Estimated
Sun 08:23:00 AM 59.3561 21.8728 57° Northeast  Level Estimated
Sun 08:24:00 AM 59.4177 22.0589 57° Northeast  Level Estimated
Sun 08:25:00 AM 59.4790 22.2457 57° Northeast  Level Estimated
Sun 08:26:00 AM 59.5400 22.4332 57° Northeast  Level Estimated
Sun 08:27:00 AM 59.6008 22.6213 57° Northeast  Level Estimated
Sun 08:28:00 AM 59.6613 22.8102 58° Northeast  Level Estimated
Sun 08:29:00 AM 59.7215 22.9997 58° Northeast  Level Estimated
Sun 08:30:00 AM 59.7814 23.1899 58° Northeast  Level Estimated
Sun 08:31:00 AM 59.8411 23.3807 58° Northeast  Level Estimated
Sun 08:32:00 AM 59.9004 23.5723 58° Northeast  Level Estimated
Sun 08:33:00 AM 59.9595 23.7645 58° Northeast  Level Estimated
Sun 08:34:00 AM 60.0184 23.9575 59° Northeast  Level Estimated
Sun 08:35:00 AM 60.0769 24.1511 59° Northeast  Level Estimated
Sun 08:36:00 AM 60.1352 24.3454 59° Northeast  Level Estimated
Sun 08:37:00 AM 60.1931 24.5404 59° Northeast  Level Estimated
Sun 08:38:00 AM 60.2508 24.7361 59° Northeast  Level Estimated
Sun 08:39:00 AM 60.3082 24.9324 59° Northeast  Level Estimated
Sun 08:40:00 AM 60.3172 24.9633 60° Northeast  Level Estimated
Sun 08:41:00 AM 60.3172 24.9633 North  Level Estimated
Sun 08:42:00 AM 60.3172 24.9633 North  Level Estimated
Sun 08:43:00 AM 60.3172 24.9633 North  Level Estimated
Sun 08:44:00 AM 60.3172 24.9633 North  Level Estimated
Sun 08:45:00 AM 60.3172 24.9633 North  Level Estimated
Sun 08:46:00 AM 60.3172 24.9633 North  Level Estimated
Sun 08:47:00 AM 60.3172 24.9633 North  Level Estimated
Sun 08:48:00 AM 60.3172 24.9633 North  Level Estimated
Sun 08:49:00 AM 60.3172 24.9633 North  Level Estimated
Sun 08:50:00 AM 60.3172 24.9633 North  Level Estimated
Sun 08:51:00 AM 60.3172 24.9633 North  Level Estimated
Sun 08:52:00 AM 60.3172 24.9633 North  Level Estimated
Sun 08:53:00 AM 60.3172 24.9633 North  Level Estimated

Login

Don't have an account? Register now (free) for customized features, flight alerts, and more!